sensor_id;sensor_type;location;lat;lon;timestamp;pressure;altitude;pressure_sealevel;temperature;humidity
64115;BME280;62188;35.640;139.748;2023-05-19T00:00:49;101119.36;;;25.58;42.77
64115;BME280;62188;35.640;139.748;2023-05-19T00:03:14;101118.88;;;25.93;42.54
64115;BME280;62188;35.640;139.748;2023-05-19T00:05:42;101129.55;;;26.17;42.37
64115;BME280;62188;35.640;139.748;2023-05-19T00:08:06;101135.88;;;26.34;42.63
64115;BME280;62188;35.640;139.748;2023-05-19T00:10:31;101142.26;;;26.34;42.52
64115;BME280;62188;35.640;139.748;2023-05-19T00:12:57;101156.19;;;26.10;42.72
64115;BME280;62188;35.640;139.748;2023-05-19T00:15:22;101147.96;;;26.01;42.81
64115;BME280;62188;35.640;139.748;2023-05-19T00:17:47;101144.00;;;26.18;43.02
64115;BME280;62188;35.640;139.748;2023-05-19T00:20:13;101138.24;;;25.90;43.06
64115;BME280;62188;35.640;139.748;2023-05-19T00:22:37;101129.72;;;25.93;42.95
64115;BME280;62188;35.640;139.748;2023-05-19T00:25:02;101130.00;;;26.03;42.77
64115;BME280;62188;35.640;139.748;2023-05-19T00:27:28;101115.84;;;26.37;41.88
64115;BME280;62188;35.640;139.748;2023-05-19T00:29:53;101106.57;;;26.16;41.23
64115;BME280;62188;35.640;139.748;2023-05-19T00:32:18;101104.59;;;26.31;41.39
64115;BME280;62188;35.640;139.748;2023-05-19T00:34:45;101105.30;;;26.57;41.15
64115;BME280;62188;35.640;139.748;2023-05-19T00:37:10;101103.86;;;26.29;40.85
64115;BME280;62188;35.640;139.748;2023-05-19T00:39:35;101104.53;;;26.16;41.78
64115;BME280;62188;35.640;139.748;2023-05-19T00:42:01;101102.70;;;26.48;42.09
64115;BME280;62188;35.640;139.748;2023-05-19T00:44:25;101105.10;;;25.80;42.79
64115;BME280;62188;35.640;139.748;2023-05-19T00:46:51;101113.83;;;25.81;43.09
64115;BME280;62188;35.640;139.748;2023-05-19T00:49:16;101118.85;;;26.00;43.40
64115;BME280;62188;35.640;139.748;2023-05-19T00:51:41;101119.02;;;26.14;43.41
64115;BME280;62188;35.640;139.748;2023-05-19T00:54:07;101116.25;;;26.25;43.39
64115;BME280;62188;35.640;139.748;2023-05-19T00:56:32;101120.49;;;26.04;43.69
64115;BME280;62188;35.640;139.748;2023-05-19T00:58:58;101120.18;;;25.60;44.42
64115;BME280;62188;35.640;139.748;2023-05-19T01:01:23;101116.68;;;25.54;44.36
64115;BME280;62188;35.640;139.748;2023-05-19T01:03:48;101113.93;;;25.40;44.33
64115;BME280;62188;35.640;139.748;2023-05-19T01:06:14;101110.50;;;25.38;44.27
64115;BME280;62188;35.640;139.748;2023-05-19T01:08:40;101112.34;;;25.36;44.06
64115;BME280;62188;35.640;139.748;2023-05-19T01:11:05;101111.25;;;25.56;44.20
64115;BME280;62188;35.640;139.748;2023-05-19T01:13:30;101115.89;;;25.86;44.30
64115;BME280;62188;35.640;139.748;2023-05-19T01:16:02;101123.45;;;25.52;44.46
64115;BME280;62188;35.640;139.748;2023-05-19T01:18:27;101123.88;;;25.81;44.57
64115;BME280;62188;35.640;139.748;2023-05-19T01:20:50;101136.82;;;25.62;44.34
64115;BME280;62188;35.640;139.748;2023-05-19T01:23:25;101129.26;;;25.44;44.58
64115;BME280;62188;35.640;139.748;2023-05-19T01:25:49;101122.04;;;25.61;44.57
64115;BME280;62188;35.640;139.748;2023-05-19T01:28:12;101124.07;;;26.08;43.94
64115;BME280;62188;35.640;139.748;2023-05-19T01:30:29;101112.60;;;25.83;43.37
64115;BME280;62188;35.640;139.748;2023-05-19T01:32:56;101110.67;;;25.79;43.07
64115;BME280;62188;35.640;139.748;2023-05-19T01:35:18;101116.89;;;25.86;42.57
64115;BME280;62188;35.640;139.748;2023-05-19T01:37:44;101115.71;;;26.07;42.42
64115;BME280;62188;35.640;139.748;2023-05-19T01:40:10;101120.62;;;25.84;41.99
64115;BME280;62188;35.640;139.748;2023-05-19T01:42:34;101114.36;;;26.15;41.93
64115;BME280;62188;35.640;139.748;2023-05-19T01:44:59;101109.81;;;26.06;41.31
64115;BME280;62188;35.640;139.748;2023-05-19T01:47:24;101107.38;;;26.05;41.13
64115;BME280;62188;35.640;139.748;2023-05-19T01:49:50;101098.73;;;26.31;41.15
64115;BME280;62188;35.640;139.748;2023-05-19T01:52:15;101098.90;;;25.85;40.73
64115;BME280;62188;35.640;139.748;2023-05-19T01:54:41;101099.70;;;26.32;40.88
64115;BME280;62188;35.640;139.748;2023-05-19T01:57:13;101097.55;;;26.13;40.97
64115;BME280;62188;35.640;139.748;2023-05-19T01:59:41;101108.04;;;26.20;40.56
64115;BME280;62188;35.640;139.748;2023-05-19T02:01:59;101097.72;;;26.46;40.22
64115;BME280;62188;35.640;139.748;2023-05-19T02:04:30;101104.75;;;26.44;40.05
64115;BME280;62188;35.640;139.748;2023-05-19T02:06:54;101102.22;;;26.21;40.15
64115;BME280;62188;35.640;139.748;2023-05-19T02:09:17;101090.23;;;26.34;39.79
64115;BME280;62188;35.640;139.748;2023-05-19T02:11:43;101093.54;;;26.70;39.87
64115;BME280;62188;35.640;139.748;2023-05-19T02:14:11;101083.89;;;26.83;39.68
64115;BME280;62188;35.640;139.748;2023-05-19T02:16:29;101082.42;;;26.38;39.58
64115;BME280;62188;35.640;139.748;2023-05-19T02:18:55;101075.48;;;26.85;39.52
64115;BME280;62188;35.640;139.748;2023-05-19T02:21:20;101080.55;;;26.73;39.31
64115;BME280;62188;35.640;139.748;2023-05-19T02:23:46;101086.78;;;26.04;39.78
64115;BME280;62188;35.640;139.748;2023-05-19T02:26:11;101095.74;;;25.67;40.81
64115;BME280;62188;35.640;139.748;2023-05-19T02:28:37;101085.77;;;25.32;40.81
64115;BME280;62188;35.640;139.748;2023-05-19T02:31:02;101077.81;;;25.24;41.71
64115;BME280;62188;35.640;139.748;2023-05-19T02:33:27;101076.80;;;24.93;42.12
64115;BME280;62188;35.640;139.748;2023-05-19T02:35:53;101092.78;;;25.35;42.51
64115;BME280;62188;35.640;139.748;2023-05-19T02:38:18;101087.72;;;25.13;42.80
64115;BME280;62188;35.640;139.748;2023-05-19T02:40:43;101086.26;;;24.89;43.10
64115;BME280;62188;35.640;139.748;2023-05-19T02:43:09;101089.36;;;25.44;42.98
64115;BME280;62188;35.640;139.748;2023-05-19T02:45:34;101086.75;;;25.19;42.77
64115;BME280;62188;35.640;139.748;2023-05-19T02:48:00;101093.72;;;25.25;42.42
64115;BME280;62188;35.640;139.748;2023-05-19T02:50:25;101087.57;;;25.01;42.85
64115;BME280;62188;35.640;139.748;2023-05-19T02:52:50;101085.51;;;25.00;42.95
64115;BME280;62188;35.640;139.748;2023-05-19T02:55:15;101081.26;;;25.23;42.65
64115;BME280;62188;35.640;139.748;2023-05-19T02:57:41;101086.12;;;25.24;42.60
64115;BME280;62188;35.640;139.748;2023-05-19T03:00:08;101086.35;;;25.66;42.51
64115;BME280;62188;35.640;139.748;2023-05-19T03:02:32;101086.35;;;25.31;41.83
64115;BME280;62188;35.640;139.748;2023-05-19T03:04:57;101082.33;;;25.42;41.88
64115;BME280;62188;35.640;139.748;2023-05-19T03:07:23;101073.79;;;25.94;41.39
64115;BME280;62188;35.640;139.748;2023-05-19T03:09:48;101077.48;;;25.60;41.96
64115;BME280;62188;35.640;139.748;2023-05-19T03:12:13;101074.93;;;25.58;41.61
64115;BME280;62188;35.640;139.748;2023-05-19T03:14:39;101069.82;;;25.36;42.02
64115;BME280;62188;35.640;139.748;2023-05-19T03:17:04;101065.79;;;25.49;41.91
64115;BME280;62188;35.640;139.748;2023-05-19T03:19:29;101054.78;;;25.35;42.10
64115;BME280;62188;35.640;139.748;2023-05-19T03:21:55;101048.17;;;25.34;41.72
64115;BME280;62188;35.640;139.748;2023-05-19T03:24:20;101063.82;;;25.48;41.95
64115;BME280;62188;35.640;139.748;2023-05-19T03:26:46;101064.78;;;25.33;41.98
64115;BME280;62188;35.640;139.748;2023-05-19T03:29:11;101056.74;;;25.23;41.84
64115;BME280;62188;35.640;139.748;2023-05-19T03:31:36;101046.28;;;25.24;42.18
64115;BME280;62188;35.640;139.748;2023-05-19T03:34:02;101041.71;;;24.97;42.73
64115;BME280;62188;35.640;139.748;2023-05-19T03:36:28;101044.61;;;25.07;43.01
64115;BME280;62188;35.640;139.748;2023-05-19T03:38:53;101051.44;;;25.07;43.34
64115;BME280;62188;35.640;139.748;2023-05-19T03:41:18;101057.06;;;24.97;43.30
64115;BME280;62188;35.640;139.748;2023-05-19T03:43:43;101054.36;;;24.85;43.02
64115;BME280;62188;35.640;139.748;2023-05-19T03:46:09;101045.33;;;25.05;43.35
64115;BME280;62188;35.640;139.748;2023-05-19T03:48:34;101028.98;;;25.11;43.07
64115;BME280;62188;35.640;139.748;2023-05-19T03:51:00;101019.40;;;25.26;43.25
64115;BME280;62188;35.640;139.748;2023-05-19T03:53:25;101007.73;;;25.21;42.87
64115;BME280;62188;35.640;139.748;2023-05-19T03:55:51;101000.16;;;25.16;42.82
64115;BME280;62188;35.640;139.748;2023-05-19T03:58:16;100985.57;;;25.58;42.42
64115;BME280;62188;35.640;139.748;2023-05-19T04:00:43;100997.86;;;25.73;41.63
64115;BME280;62188;35.640;139.748;2023-05-19T04:03:07;101005.95;;;25.23;41.89
64115;BME280;62188;35.640;139.748;2023-05-19T04:05:33;101007.89;;;25.41;41.73
64115;BME280;62188;35.640;139.748;2023-05-19T04:07:58;101014.33;;;24.93;41.47
64115;BME280;62188;35.640;139.748;2023-05-19T04:10:28;101012.94;;;25.02;42.03
64115;BME280;62188;35.640;139.748;2023-05-19T04:12:48;101016.15;;;25.29;41.74
64115;BME280;62188;35.640;139.748;2023-05-19T04:15:13;101021.23;;;24.93;41.87
64115;BME280;62188;35.640;139.748;2023-05-19T04:17:38;101022.03;;;24.72;42.55
64115;BME280;62188;35.640;139.748;2023-05-19T04:20:04;101019.50;;;24.80;42.64
64115;BME280;62188;35.640;139.748;2023-05-19T04:22:30;101011.13;;;25.03;42.48
64115;BME280;62188;35.640;139.748;2023-05-19T04:24:55;101003.18;;;25.15;42.34
64115;BME280;62188;35.640;139.748;2023-05-19T04:27:20;101002.08;;;24.92;42.55
64115;BME280;62188;35.640;139.748;2023-05-19T04:29:46;101014.62;;;24.90;42.40
64115;BME280;62188;35.640;139.748;2023-05-19T04:32:11;101007.63;;;25.26;42.21
64115;BME280;62188;35.640;139.748;2023-05-19T04:34:37;101003.54;;;25.24;42.12
64115;BME280;62188;35.640;139.748;2023-05-19T04:37:02;101001.15;;;25.20;42.28
64115;BME280;62188;35.640;139.748;2023-05-19T04:39:27;100997.81;;;24.67;42.38
64115;BME280;62188;35.640;139.748;2023-05-19T04:41:52;100985.18;;;24.79;42.41
64115;BME280;62188;35.640;139.748;2023-05-19T04:44:18;100959.62;;;25.01;42.45
64115;BME280;62188;35.640;139.748;2023-05-19T04:46:44;100933.61;;;24.89;42.51
64115;BME280;62188;35.640;139.748;2023-05-19T04:49:09;100931.31;;;24.88;42.55
64115;BME280;62188;35.640;139.748;2023-05-19T04:51:34;100969.86;;;25.17;42.63
64115;BME280;62188;35.640;139.748;2023-05-19T04:54:00;100956.56;;;25.14;43.01
64115;BME280;62188;35.640;139.748;2023-05-19T04:56:25;100953.22;;;25.10;43.33
64115;BME280;62188;35.640;139.748;2023-05-19T04:58:50;100901.43;;;24.52;44.04
64115;BME280;62188;35.640;139.748;2023-05-19T05:01:16;100879.79;;;25.26;43.77
64115;BME280;62188;35.640;139.748;2023-05-19T05:03:40;100880.27;;;25.54;43.69
64115;BME280;62188;35.640;139.748;2023-05-19T05:06:06;100891.53;;;25.36;43.44
64115;BME280;62188;35.640;139.748;2023-05-19T05:08:31;100895.17;;;25.27;43.30
64115;BME280;62188;35.640;139.748;2023-05-19T05:10:57;100903.64;;;25.20;43.15
64115;BME280;62188;35.640;139.748;2023-05-19T05:13:24;100884.79;;;24.95;43.62
64115;BME280;62188;35.640;139.748;2023-05-19T05:15:49;100864.60;;;24.98;43.83
64115;BME280;62188;35.640;139.748;2023-05-19T05:18:14;100869.20;;;25.03;43.59
64115;BME280;62188;35.640;139.748;2023-05-19T05:20:40;100877.63;;;25.20;42.83
64115;BME280;62188;35.640;139.748;2023-05-19T05:23:05;100880.00;;;24.73;43.17
64115;BME280;62188;35.640;139.748;2023-05-19T05:25:31;100881.15;;;25.04;43.67
64115;BME280;62188;35.640;139.748;2023-05-19T05:27:56;100884.41;;;25.10;43.46
64115;BME280;62188;35.640;139.748;2023-05-19T05:30:20;100880.25;;;25.22;43.65
64115;BME280;62188;35.640;139.748;2023-05-19T05:32:46;100872.65;;;25.00;43.34
64115;BME280;62188;35.640;139.748;2023-05-19T05:35:12;100882.60;;;25.27;43.24
64115;BME280;62188;35.640;139.748;2023-05-19T05:37:38;100888.15;;;25.16;43.37
64115;BME280;62188;35.640;139.748;2023-05-19T05:40:04;100890.87;;;25.20;43.28
64115;BME280;62188;35.640;139.748;2023-05-19T05:42:29;100889.28;;;25.04;43.21
64115;BME280;62188;35.640;139.748;2023-05-19T05:44:55;100884.59;;;24.60;43.35
64115;BME280;62188;35.640;139.748;2023-05-19T05:47:21;100877.71;;;24.80;43.71
64115;BME280;62188;35.640;139.748;2023-05-19T05:49:45;100877.81;;;24.79;43.67
64115;BME280;62188;35.640;139.748;2023-05-19T05:52:12;100879.36;;;24.90;43.75
64115;BME280;62188;35.640;139.748;2023-05-19T05:54:37;100881.86;;;25.09;43.67
64115;BME280;62188;35.640;139.748;2023-05-19T05:57:02;100880.21;;;24.98;43.66
64115;BME280;62188;35.640;139.748;2023-05-19T05:59:28;100889.77;;;25.17;43.22
64115;BME280;62188;35.640;139.748;2023-05-19T06:01:53;100890.59;;;24.85;43.27
64115;BME280;62188;35.640;139.748;2023-05-19T06:04:18;100888.73;;;24.87;43.22
64115;BME280;62188;35.640;139.748;2023-05-19T06:06:43;100889.72;;;25.23;43.30
64115;BME280;62188;35.640;139.748;2023-05-19T06:09:09;100894.93;;;24.95;43.60
64115;BME280;62188;35.640;139.748;2023-05-19T06:11:34;100890.84;;;24.86;43.66
64115;BME280;62188;35.640;139.748;2023-05-19T06:13:59;100893.71;;;24.89;44.07
64115;BME280;62188;35.640;139.748;2023-05-19T06:16:25;100894.34;;;25.10;44.02
64115;BME280;62188;35.640;139.748;2023-05-19T06:18:50;100893.63;;;24.90;44.04
64115;BME280;62188;35.640;139.748;2023-05-19T06:21:16;100901.39;;;25.19;44.21
64115;BME280;62188;35.640;139.748;2023-05-19T06:23:41;100900.70;;;25.35;44.18
64115;BME280;62188;35.640;139.748;2023-05-19T06:26:07;100907.56;;;25.37;44.16
64115;BME280;62188;35.640;139.748;2023-05-19T06:28:32;100910.76;;;25.36;44.31
64115;BME280;62188;35.640;139.748;2023-05-19T06:30:58;100914.58;;;25.18;44.37
64115;BME280;62188;35.640;139.748;2023-05-19T06:33:24;100926.31;;;25.04;44.78
64115;BME280;62188;35.640;139.748;2023-05-19T06:35:48;100934.35;;;25.19;45.13
64115;BME280;62188;35.640;139.748;2023-05-19T06:38:15;100953.13;;;25.33;43.89
64115;BME280;62188;35.640;139.748;2023-05-19T06:40:40;100951.24;;;24.67;43.18
64115;BME280;62188;35.640;139.748;2023-05-19T06:43:05;100960.21;;;24.30;44.04
64115;BME280;62188;35.640;139.748;2023-05-19T06:45:30;100990.05;;;24.27;44.20
64115;BME280;62188;35.640;139.748;2023-05-19T06:47:56;100993.20;;;24.35;44.01
64115;BME280;62188;35.640;139.748;2023-05-19T06:50:21;100995.42;;;24.23;44.57
64115;BME280;62188;35.640;139.748;2023-05-19T06:52:46;100998.77;;;24.52;44.93
64115;BME280;62188;35.640;139.748;2023-05-19T06:55:11;101000.04;;;24.43;45.18
64115;BME280;62188;35.640;139.748;2023-05-19T06:57:36;100994.49;;;24.27;45.00
64115;BME280;62188;35.640;139.748;2023-05-19T07:00:02;100992.58;;;24.76;44.53
64115;BME280;62188;35.640;139.748;2023-05-19T07:02:28;101001.00;;;24.28;44.33
64115;BME280;62188;35.640;139.748;2023-05-19T07:04:53;101001.99;;;24.61;44.46
64115;BME280;62188;35.640;139.748;2023-05-19T07:07:17;101016.16;;;24.62;44.68
64115;BME280;62188;35.640;139.748;2023-05-19T07:09:43;101015.30;;;24.37;44.40
64115;BME280;62188;35.640;139.748;2023-05-19T07:12:09;101017.51;;;24.57;44.50
64115;BME280;62188;35.640;139.748;2023-05-19T07:14:34;101018.13;;;24.57;43.95
64115;BME280;62188;35.640;139.748;2023-05-19T07:17:00;101019.31;;;24.60;44.02
64115;BME280;62188;35.640;139.748;2023-05-19T07:19:25;101013.92;;;24.54;43.45
64115;BME280;62188;35.640;139.748;2023-05-19T07:21:51;101013.47;;;24.57;43.74
64115;BME280;62188;35.640;139.748;2023-05-19T07:24:16;101009.20;;;24.29;43.95
64115;BME280;62188;35.640;139.748;2023-05-19T07:26:42;101009.71;;;24.65;43.59
64115;BME280;62188;35.640;139.748;2023-05-19T07:29:07;101002.33;;;24.37;43.92
64115;BME280;62188;35.640;139.748;2023-05-19T07:31:32;100996.73;;;24.33;43.78
64115;BME280;62188;35.640;139.748;2023-05-19T07:33:59;100994.90;;;24.32;43.93
64115;BME280;62188;35.640;139.748;2023-05-19T07:36:24;100985.29;;;24.32;43.66
64115;BME280;62188;35.640;139.748;2023-05-19T07:38:49;100978.27;;;24.27;43.63
64115;BME280;62188;35.640;139.748;2023-05-19T07:41:14;100972.08;;;24.33;43.81
64115;BME280;62188;35.640;139.748;2023-05-19T07:43:39;100967.22;;;24.35;43.88
64115;BME280;62188;35.640;139.748;2023-05-19T07:46:06;100966.71;;;24.36;43.71
64115;BME280;62188;35.640;139.748;2023-05-19T07:48:31;100963.37;;;24.38;43.78
64115;BME280;62188;35.640;139.748;2023-05-19T07:50:56;100958.83;;;24.37;43.51
64115;BME280;62188;35.640;139.748;2023-05-19T07:53:22;100952.25;;;24.38;43.48
64115;BME280;62188;35.640;139.748;2023-05-19T07:55:48;100954.38;;;24.43;43.77
64115;BME280;62188;35.640;139.748;2023-05-19T07:58:12;100961.17;;;24.41;43.79
64115;BME280;62188;35.640;139.748;2023-05-19T08:00:38;100959.87;;;24.47;44.02
64115;BME280;62188;35.640;139.748;2023-05-19T08:03:03;100957.92;;;24.50;43.90
64115;BME280;62188;35.640;139.748;2023-05-19T08:05:29;100952.33;;;24.37;43.23
64115;BME280;62188;35.640;139.748;2023-05-19T08:07:54;100943.36;;;23.87;43.33
64115;BME280;62188;35.640;139.748;2023-05-19T08:10:19;100937.38;;;23.74;43.23
64115;BME280;62188;35.640;139.748;2023-05-19T08:12:45;100929.35;;;23.53;43.68
64115;BME280;62188;35.640;139.748;2023-05-19T08:15:11;100924.25;;;23.45;44.38
64115;BME280;62188;35.640;139.748;2023-05-19T08:17:35;100925.12;;;23.22;44.86
64115;BME280;62188;35.640;139.748;2023-05-19T08:20:00;100923.76;;;23.45;44.80
64115;BME280;62188;35.640;139.748;2023-05-19T08:22:27;100922.52;;;23.40;44.83
64115;BME280;62188;35.640;139.748;2023-05-19T08:24:52;100926.53;;;23.13;45.24
64115;BME280;62188;35.640;139.748;2023-05-19T08:27:17;100924.92;;;22.88;45.65
64115;BME280;62188;35.640;139.748;2023-05-19T08:29:43;100923.56;;;22.87;46.21
64115;BME280;62188;35.640;139.748;2023-05-19T08:32:08;100925.30;;;23.00;46.19
64115;BME280;62188;35.640;139.748;2023-05-19T08:34:34;100926.68;;;23.16;45.86
64115;BME280;62188;35.640;139.748;2023-05-19T08:36:58;100930.65;;;22.87;46.14
64115;BME280;62188;35.640;139.748;2023-05-19T08:39:24;100932.74;;;23.20;46.21
64115;BME280;62188;35.640;139.748;2023-05-19T08:41:50;100933.20;;;23.05;46.12
64115;BME280;62188;35.640;139.748;2023-05-19T08:44:15;100936.50;;;23.18;46.09
64115;BME280;62188;35.640;139.748;2023-05-19T08:46:41;100936.11;;;23.35;46.05
64115;BME280;62188;35.640;139.748;2023-05-19T08:49:11;100936.11;;;23.04;45.34
64115;BME280;62188;35.640;139.748;2023-05-19T08:51:38;100930.51;;;23.14;45.74
64115;BME280;62188;35.640;139.748;2023-05-19T08:54:06;100924.78;;;23.15;45.97
64115;BME280;62188;35.640;139.748;2023-05-19T08:56:23;100929.40;;;23.26;45.65
64115;BME280;62188;35.640;139.748;2023-05-19T08:58:51;100937.07;;;23.06;45.72
64115;BME280;62188;35.640;139.748;2023-05-19T09:01:14;100955.27;;;23.09;46.36
64115;BME280;62188;35.640;139.748;2023-05-19T09:03:39;100963.50;;;22.85;46.37
64115;BME280;62188;35.640;139.748;2023-05-19T09:06:06;100965.05;;;23.11;46.50
64115;BME280;62188;35.640;139.748;2023-05-19T09:08:30;100961.65;;;22.75;46.65
64115;BME280;62188;35.640;139.748;2023-05-19T09:10:55;100962.60;;;22.61;46.70
64115;BME280;62188;35.640;139.748;2023-05-19T09:13:20;100955.65;;;22.66;46.74
64115;BME280;62188;35.640;139.748;2023-05-19T09:15:46;100958.76;;;22.10;47.50
64115;BME280;62188;35.640;139.748;2023-05-19T09:18:12;100959.44;;;22.49;47.70
64115;BME280;62188;35.640;139.748;2023-05-19T09:20:40;100962.81;;;22.26;48.02
64115;BME280;62188;35.640;139.748;2023-05-19T09:23:02;100966.04;;;22.22;47.94
64115;BME280;62188;35.640;139.748;2023-05-19T09:25:27;100958.88;;;22.35;47.93
64115;BME280;62188;35.640;139.748;2023-05-19T09:27:54;100953.14;;;22.22;48.05
64115;BME280;62188;35.640;139.748;2023-05-19T09:30:19;100943.84;;;21.87;48.09
64115;BME280;62188;35.640;139.748;2023-05-19T09:32:44;100921.85;;;21.67;48.72
64115;BME280;62188;35.640;139.748;2023-05-19T09:35:11;100902.71;;;21.69;48.67
64115;BME280;62188;35.640;139.748;2023-05-19T09:37:37;100878.07;;;21.70;48.60
64115;BME280;62188;35.640;139.748;2023-05-19T09:40:00;100864.17;;;21.57;49.08
64115;BME280;62188;35.640;139.748;2023-05-19T09:42:26;100852.50;;;21.29;49.51
64115;BME280;62188;35.640;139.748;2023-05-19T09:44:59;100830.76;;;21.12;49.86
64115;BME280;62188;35.640;139.748;2023-05-19T09:47:17;100824.04;;;20.77;50.39
64115;BME280;62188;35.640;139.748;2023-05-19T09:49:46;100817.30;;;20.36;51.07
64115;BME280;62188;35.640;139.748;2023-05-19T09:52:07;100845.45;;;20.47;51.48
64115;BME280;62188;35.640;139.748;2023-05-19T09:54:34;100846.54;;;20.65;51.23
64115;BME280;62188;35.640;139.748;2023-05-19T09:57:00;100840.66;;;20.98;50.74
64115;BME280;62188;35.640;139.748;2023-05-19T09:59:25;100837.10;;;21.24;50.05
64115;BME280;62188;35.640;139.748;2023-05-19T10:01:50;100839.45;;;20.90;50.27
64115;BME280;62188;35.640;139.748;2023-05-19T10:04:15;100832.46;;;21.13;50.16
64115;BME280;62188;35.640;139.748;2023-05-19T10:06:40;100828.00;;;21.00;50.36
64115;BME280;62188;35.640;139.748;2023-05-19T10:09:06;100813.72;;;20.86;50.42
64115;BME280;62188;35.640;139.748;2023-05-19T10:11:32;100801.54;;;20.77;50.79
64115;BME280;62188;35.640;139.748;2023-05-19T10:13:57;100792.67;;;20.83;50.94
64115;BME280;62188;35.640;139.748;2023-05-19T10:16:24;100800.52;;;20.58;50.84
64115;BME280;62188;35.640;139.748;2023-05-19T10:18:50;100801.84;;;20.93;51.34
64115;BME280;62188;35.640;139.748;2023-05-19T10:21:14;100821.46;;;20.32;51.25
64115;BME280;62188;35.640;139.748;2023-05-19T10:23:39;100843.13;;;20.57;51.03
64115;BME280;62188;35.640;139.748;2023-05-19T10:26:05;100837.83;;;20.49;51.87
64115;BME280;62188;35.640;139.748;2023-05-19T10:28:35;100845.20;;;20.51;51.80
64115;BME280;62188;35.640;139.748;2023-05-19T10:30:58;100846.29;;;20.44;51.44
64115;BME280;62188;35.640;139.748;2023-05-19T10:33:34;100856.15;;;20.65;50.99
64115;BME280;62188;35.640;139.748;2023-05-19T10:35:56;100867.25;;;20.62;51.10
64115;BME280;62188;35.640;139.748;2023-05-19T10:38:20;100877.49;;;20.80;50.82
64115;BME280;62188;35.640;139.748;2023-05-19T10:40:48;100874.27;;;20.87;50.75
64115;BME280;62188;35.640;139.748;2023-05-19T10:43:14;100863.84;;;21.16;49.96
64115;BME280;62188;35.640;139.748;2023-05-19T10:45:31;100865.08;;;21.32;49.76
64115;BME280;62188;35.640;139.748;2023-05-19T10:47:54;100854.90;;;21.41;49.26
64115;BME280;62188;35.640;139.748;2023-05-19T10:50:20;100853.20;;;21.29;49.14
64115;BME280;62188;35.640;139.748;2023-05-19T10:52:44;100854.13;;;21.28;49.10
64115;BME280;62188;35.640;139.748;2023-05-19T10:55:11;100856.71;;;21.20;48.79
64115;BME280;62188;35.640;139.748;2023-05-19T10:57:35;100863.35;;;21.36;49.00
64115;BME280;62188;35.640;139.748;2023-05-19T11:00:03;100869.51;;;21.13;48.81
64115;BME280;62188;35.640;139.748;2023-05-19T11:02:36;100871.43;;;21.31;49.12
64115;BME280;62188;35.640;139.748;2023-05-19T11:04:51;100866.34;;;21.86;48.57
64115;BME280;62188;35.640;139.748;2023-05-19T11:07:19;100864.38;;;21.97;48.41
64115;BME280;62188;35.640;139.748;2023-05-19T11:09:43;100858.98;;;21.84;48.14
64115;BME280;62188;35.640;139.748;2023-05-19T11:12:08;100856.95;;;21.89;47.88
64115;BME280;62188;35.640;139.748;2023-05-19T11:14:33;100848.83;;;21.91;47.83
64115;BME280;62188;35.640;139.748;2023-05-19T11:16:59;100836.74;;;21.98;48.07
64115;BME280;62188;35.640;139.748;2023-05-19T11:19:28;100837.50;;;21.97;47.72
64115;BME280;62188;35.640;139.748;2023-05-19T11:21:50;100839.06;;;21.72;48.13
64115;BME280;62188;35.640;139.748;2023-05-19T11:26:41;100854.07;;;21.97;47.72
64115;BME280;62188;35.640;139.748;2023-05-19T11:29:05;100850.23;;;21.86;48.01
64115;BME280;62188;35.640;139.748;2023-05-19T11:31:31;100848.33;;;21.82;48.34
64115;BME280;62188;35.640;139.748;2023-05-19T11:33:57;100859.51;;;22.06;48.20
64115;BME280;62188;35.640;139.748;2023-05-19T11:36:22;100860.91;;;22.04;47.95
64115;BME280;62188;35.640;139.748;2023-05-19T11:38:48;100848.98;;;22.04;47.96
64115;BME280;62188;35.640;139.748;2023-05-19T11:41:16;100851.56;;;21.93;48.04
64115;BME280;62188;35.640;139.748;2023-05-19T11:43:38;100866.77;;;22.20;47.55
64115;BME280;62188;35.640;139.748;2023-05-19T11:46:05;100870.71;;;22.44;47.67
64115;BME280;62188;35.640;139.748;2023-05-19T11:48:29;100863.07;;;22.45;47.45
64115;BME280;62188;35.640;139.748;2023-05-19T11:50:55;100855.71;;;22.37;47.22
64115;BME280;62188;35.640;139.748;2023-05-19T11:53:20;100854.69;;;22.71;46.63
64115;BME280;62188;35.640;139.748;2023-05-19T11:55:46;100853.96;;;22.55;46.53
64115;BME280;62188;35.640;139.748;2023-05-19T11:58:11;100850.92;;;22.50;46.35
64115;BME280;62188;35.640;139.748;2023-05-19T12:00:38;100849.33;;;23.09;46.03
64115;BME280;62188;35.640;139.748;2023-05-19T12:03:03;100847.13;;;23.04;45.81
64115;BME280;62188;35.640;139.748;2023-05-19T12:05:28;100847.79;;;23.16;45.57
64115;BME280;62188;35.640;139.748;2023-05-19T12:07:53;100847.97;;;22.95;45.25
64115;BME280;62188;35.640;139.748;2023-05-19T12:10:22;100846.92;;;22.87;45.25
64115;BME280;62188;35.640;139.748;2023-05-19T12:12:43;100846.82;;;23.00;45.27
64115;BME280;62188;35.640;139.748;2023-05-19T12:15:10;100844.39;;;23.15;45.10
64115;BME280;62188;35.640;139.748;2023-05-19T12:17:34;100837.02;;;23.22;44.96
64115;BME280;62188;35.640;139.748;2023-05-19T12:20:06;100834.26;;;23.24;44.94
64115;BME280;62188;35.640;139.748;2023-05-19T12:22:25;100834.92;;;23.48;45.36